KONO

Details ICAO KONO
Name Ontario Muni
Region United States
Timezone America/Boise (UTC-7.0)
Plans Departing 3
Arriving 6
Stats Elevation 2,193 ft / 668 m (AMSL)
Location 44.020231° -117.013492°
Runways 1
Magnetic Variation 13.678° E
Sunrise 2017-12-17 15:18:55 UTC / 2017-12-17 08:18:55 Local
Sunset 2017-12-18 00:12:29 UTC / 2017-12-17 17:12:29 Local
Advertisement - Login to hide

Runways

ID Width Length Bearing (true) Bearing (mag) Surface Threshold Offset Overrun Length
14 100 ft / 30 m 4,310 ft / 1,314 m 158.65° 144.97° Asphalt 220 ft / 67 m 0 ft / 0 m
32 100 ft / 30 m 4,310 ft / 1,314 m 338.66° 324.98° Asphalt 0 ft / 0 m 0 ft / 0 m

Map

Weather


0- 5 10 15 20 25 30 35+ Temperature / ° C

Clouds and Precipitation
Forecast for 2017-12-18 06:00 UTC. Updated 41 minutes ago

Ground ~20,000 ft ~40,000 ft Winds

METAR

KONO 180353Z AUTO 01003KT 10SM OVC043 01/M03 A3027 RMK AO2 SLP273 T00111033

TAF

Not found

Frequencies

Recorded 135.27 MHz ASOS
Unicom 122.80 MHz CTAF/UNICOM
Warning: Do not use this data for real-world aviation or navigation. No guarantee of current accuracy is given.